sensor_id;sensor_type;location;lat;lon;timestamp;pressure;altitude;pressure_sealevel;temperature;humidity
67840;BME280;54636;51.684;5.142;2023-04-05T00:00:25;102489.47;;;1.69;99.42
67840;BME280;54636;51.684;5.142;2023-04-05T00:02:50;102532.03;;;1.88;99.26
67840;BME280;54636;51.684;5.142;2023-04-05T00:05:18;102522.44;;;1.83;100.00
67840;BME280;54636;51.684;5.142;2023-04-05T00:07:53;102522.44;;;1.80;99.82
67840;BME280;54636;51.684;5.142;2023-04-05T00:10:19;102519.34;;;1.74;100.00
67840;BME280;54636;51.684;5.142;2023-04-05T00:12:44;102518.56;;;1.70;100.00
67840;BME280;54636;51.684;5.142;2023-04-05T00:15:10;102519.69;;;1.65;100.00
67840;BME280;54636;51.684;5.142;2023-04-05T00:17:35;102528.88;;;1.64;100.00
67840;BME280;54636;51.684;5.142;2023-04-05T00:20:01;102524.28;;;1.61;100.00
67840;BME280;54636;51.684;5.142;2023-04-05T00:22:31;102528.47;;;1.59;100.00
67840;BME280;54636;51.684;5.142;2023-04-05T00:25:00;102515.84;;;1.56;100.00
67840;BME280;54636;51.684;5.142;2023-04-05T00:27:26;102497.81;;;1.46;100.00
67840;BME280;54636;51.684;5.142;2023-04-05T00:29:51;102503.16;;;1.46;100.00
67840;BME280;54636;51.684;5.142;2023-04-05T00:32:17;102477.06;;;1.21;100.00
67840;BME280;54636;51.684;5.142;2023-04-05T00:34:42;102513.47;;;1.44;100.00
67840;BME280;54636;51.684;5.142;2023-04-05T00:37:08;102491.63;;;1.31;100.00
67840;BME280;54636;51.684;5.142;2023-04-05T00:39:33;102508.09;;;1.37;100.00
67840;BME280;54636;51.684;5.142;2023-04-05T00:42:02;102509.97;;;1.32;100.00
67840;BME280;54636;51.684;5.142;2023-04-05T00:44:28;102493.88;;;1.22;100.00
67840;BME280;54636;51.684;5.142;2023-04-05T00:46:59;102496.19;;;1.23;100.00
67840;BME280;54636;51.684;5.142;2023-04-05T00:49:25;102499.63;;;1.20;100.00
67840;BME280;54636;51.684;5.142;2023-04-05T00:51:50;102494.25;;;1.17;100.00
67840;BME280;54636;51.684;5.142;2023-04-05T00:54:17;102499.94;;;1.12;100.00
67840;BME280;54636;51.684;5.142;2023-04-05T00:56:43;102505.28;;;1.12;100.00
67840;BME280;54636;51.684;5.142;2023-04-05T00:59:08;102501.06;;;1.07;100.00
67840;BME280;54636;51.684;5.142;2023-04-05T01:01:35;102498.00;;;1.05;100.00
67840;BME280;54636;51.684;5.142;2023-04-05T01:04:04;102496.44;;;1.01;100.00
67840;BME280;54636;51.684;5.142;2023-04-05T01:09:08;102497.53;;;0.96;100.00
67840;BME280;54636;51.684;5.142;2023-04-05T01:11:39;102494.06;;;0.92;100.00
67840;BME280;54636;51.684;5.142;2023-04-05T01:14:06;102487.50;;;0.82;100.00
67840;BME280;54636;51.684;5.142;2023-04-05T01:16:31;102484.09;;;0.85;100.00
67840;BME280;54636;51.684;5.142;2023-04-05T01:18:57;102482.91;;;0.79;100.00
67840;BME280;54636;51.684;5.142;2023-04-05T01:29:44;102471.38;;;0.68;100.00
67840;BME280;54636;51.684;5.142;2023-04-05T01:32:49;102457.19;;;0.57;100.00
67840;BME280;54636;51.684;5.142;2023-04-05T01:35:24;102472.47;;;0.60;100.00
67840;BME280;54636;51.684;5.142;2023-04-05T01:37:58;102472.81;;;0.55;100.00
67840;BME280;54636;51.684;5.142;2023-04-05T01:40:25;102477.78;;;0.56;100.00
67840;BME280;54636;51.684;5.142;2023-04-05T01:42:51;102472.06;;;0.54;100.00
67840;BME280;54636;51.684;5.142;2023-04-05T01:45:16;102465.50;;;0.48;100.00
67840;BME280;54636;51.684;5.142;2023-04-05T01:47:42;102454.75;;;0.41;100.00
67840;BME280;54636;51.684;5.142;2023-04-05T01:50:07;102457.00;;;0.36;100.00
67840;BME280;54636;51.684;5.142;2023-04-05T01:52:33;102460.09;;;0.41;100.00
67840;BME280;54636;51.684;5.142;2023-04-05T01:54:58;102465.03;;;0.36;100.00
67840;BME280;54636;51.684;5.142;2023-04-05T01:57:24;102456.19;;;0.31;100.00
67840;BME280;54636;51.684;5.142;2023-04-05T01:59:49;102446.59;;;0.23;100.00
67840;BME280;54636;51.684;5.142;2023-04-05T02:02:14;102447.75;;;0.26;100.00
67840;BME280;54636;51.684;5.142;2023-04-05T02:04:40;102451.94;;;0.23;100.00
67840;BME280;54636;51.684;5.142;2023-04-05T02:07:06;102437.31;;;0.10;100.00
67840;BME280;54636;51.684;5.142;2023-04-05T02:09:32;102435.00;;;0.09;100.00
67840;BME280;54636;51.684;5.142;2023-04-05T02:11:57;102433.47;;;0.08;100.00
67840;BME280;54636;51.684;5.142;2023-04-05T02:14:23;102449.16;;;0.13;100.00
67840;BME280;54636;51.684;5.142;2023-04-05T02:16:50;102445.66;;;0.05;100.00
67840;BME280;54636;51.684;5.142;2023-04-05T02:19:18;102441.09;;;0.06;100.00
67840;BME280;54636;51.684;5.142;2023-04-05T02:21:50;102435.34;;;0.00;100.00
67840;BME280;54636;51.684;5.142;2023-04-05T02:24:18;102433.34;;;-0.07;100.00
67840;BME280;54636;51.684;5.142;2023-04-05T02:26:43;102416.81;;;-0.19;100.00
67840;BME280;54636;51.684;5.142;2023-04-05T02:29:09;102429.91;;;-0.07;100.00
67840;BME280;54636;51.684;5.142;2023-04-05T02:31:35;102430.19;;;-0.19;100.00
67840;BME280;54636;51.684;5.142;2023-04-05T02:34:00;102426.78;;;-0.16;100.00
67840;BME280;54636;51.684;5.142;2023-04-05T02:36:25;102434.38;;;-0.18;100.00
67840;BME280;54636;51.684;5.142;2023-04-05T02:38:53;102436.66;;;-0.20;100.00
67840;BME280;54636;51.684;5.142;2023-04-05T02:41:18;102433.53;;;-0.26;100.00
67840;BME280;54636;51.684;5.142;2023-04-05T02:43:44;102426.25;;;-0.29;100.00
67840;BME280;54636;51.684;5.142;2023-04-05T02:46:10;102426.19;;;-0.36;100.00
67840;BME280;54636;51.684;5.142;2023-04-05T02:48:36;102432.69;;;-0.34;100.00
67840;BME280;54636;51.684;5.142;2023-04-05T02:51:02;102421.56;;;-0.39;100.00
67840;BME280;54636;51.684;5.142;2023-04-05T02:53:27;102420.84;;;-0.36;100.00
67840;BME280;54636;51.684;5.142;2023-04-05T02:55:54;102409.69;;;-0.45;100.00
67840;BME280;54636;51.684;5.142;2023-04-05T02:58:21;102415.06;;;-0.42;100.00
67840;BME280;54636;51.684;5.142;2023-04-05T03:00:47;102408.88;;;-0.49;100.00
67840;BME280;54636;51.684;5.142;2023-04-05T03:03:19;102408.88;;;-0.49;100.00
67840;BME280;54636;51.684;5.142;2023-04-05T03:05:45;102397.34;;;-0.57;100.00
67840;BME280;54636;51.684;5.142;2023-04-05T03:08:15;102398.84;;;-0.59;100.00
67840;BME280;54636;51.684;5.142;2023-04-05T03:10:47;102389.25;;;-0.68;100.00
67840;BME280;54636;51.684;5.142;2023-04-05T03:13:15;102409.53;;;-0.59;100.00
67840;BME280;54636;51.684;5.142;2023-04-05T03:15:41;102393.47;;;-0.67;100.00
67840;BME280;54636;51.684;5.142;2023-04-05T03:18:07;102401.81;;;-0.68;100.00
67840;BME280;54636;51.684;5.142;2023-04-05T03:20:34;102384.50;;;-0.81;100.00
67840;BME280;54636;51.684;5.142;2023-04-05T03:23:06;102359.53;;;-1.00;100.00
67840;BME280;54636;51.684;5.142;2023-04-05T03:25:35;102386.06;;;-0.80;100.00
67840;BME280;54636;51.684;5.142;2023-04-05T03:28:06;102391.75;;;-0.82;100.00
67840;BME280;54636;51.684;5.142;2023-04-05T03:30:33;102393.66;;;-0.82;100.00
67840;BME280;54636;51.684;5.142;2023-04-05T03:32:59;102392.06;;;-0.87;100.00
67840;BME280;54636;51.684;5.142;2023-04-05T03:35:26;102394.75;;;-0.87;100.00
67840;BME280;54636;51.684;5.142;2023-04-05T03:37:52;102378.59;;;-0.97;100.00
67840;BME280;54636;51.684;5.142;2023-04-05T03:40:18;102370.50;;;-1.05;100.00
67840;BME280;54636;51.684;5.142;2023-04-05T03:42:43;102378.50;;;-1.05;100.00
67840;BME280;54636;51.684;5.142;2023-04-05T03:45:10;102391.13;;;-1.02;100.00
67840;BME280;54636;51.684;5.142;2023-04-05T03:47:35;102390.25;;;-1.09;100.00
67840;BME280;54636;51.684;5.142;2023-04-05T03:50:02;102372.69;;;-1.14;100.00
67840;BME280;54636;51.684;5.142;2023-04-05T03:52:27;102379.59;;;-1.09;100.00
67840;BME280;54636;51.684;5.142;2023-04-05T03:54:53;102381.44;;;-1.13;100.00
67840;BME280;54636;51.684;5.142;2023-04-05T03:57:18;102376.78;;;-1.20;100.00
67840;BME280;54636;51.684;5.142;2023-04-05T03:59:44;102393.22;;;-1.14;100.00
67840;BME280;54636;51.684;5.142;2023-04-05T04:02:10;102392.81;;;-1.16;100.00
67840;BME280;54636;51.684;5.142;2023-04-05T04:04:35;102382.84;;;-1.23;100.00
67840;BME280;54636;51.684;5.142;2023-04-05T04:07:01;102375.16;;;-1.28;100.00
67840;BME280;54636;51.684;5.142;2023-04-05T04:09:26;102381.25;;;-1.27;100.00
67840;BME280;54636;51.684;5.142;2023-04-05T04:11:54;102388.47;;;-1.28;100.00
67840;BME280;54636;51.684;5.142;2023-04-05T04:14:21;102388.84;;;-1.29;100.00
67840;BME280;54636;51.684;5.142;2023-04-05T04:16:47;102387.63;;;-1.36;100.00
67840;BME280;54636;51.684;5.142;2023-04-05T04:19:12;102378.47;;;-1.38;100.00
67840;BME280;54636;51.684;5.142;2023-04-05T04:21:37;102383.03;;;-1.39;100.00
67840;BME280;54636;51.684;5.142;2023-04-05T04:24:04;102384.16;;;-1.40;100.00
67840;BME280;54636;51.684;5.142;2023-04-05T04:26:29;102371.38;;;-1.53;100.00
67840;BME280;54636;51.684;5.142;2023-04-05T04:29:04;102380.63;;;-1.47;100.00
67840;BME280;54636;51.684;5.142;2023-04-05T04:31:30;102376.75;;;-1.50;100.00
67840;BME280;54636;51.684;5.142;2023-04-05T04:33:57;102370.88;;;-1.62;100.00
67840;BME280;54636;51.684;5.142;2023-04-05T04:36:23;102382.00;;;-1.57;100.00
67840;BME280;54636;51.684;5.142;2023-04-05T04:39:01;102390.03;;;-1.53;100.00
67840;BME280;54636;51.684;5.142;2023-04-05T04:41:30;102383.53;;;-1.56;100.00
67840;BME280;54636;51.684;5.142;2023-04-05T04:43:58;102375.44;;;-1.63;100.00
67840;BME280;54636;51.684;5.142;2023-04-05T04:46:27;102377.38;;;-1.60;100.00
67840;BME280;54636;51.684;5.142;2023-04-05T04:48:55;102377.38;;;-1.60;100.00
67840;BME280;54636;51.684;5.142;2023-04-05T04:51:22;102380.75;;;-1.63;100.00
67840;BME280;54636;51.684;5.142;2023-04-05T04:53:47;102383.41;;;-1.63;100.00
67840;BME280;54636;51.684;5.142;2023-04-05T04:56:12;102365.03;;;-1.72;100.00
67840;BME280;54636;51.684;5.142;2023-04-05T04:58:38;102372.72;;;-1.67;100.00
67840;BME280;54636;51.684;5.142;2023-04-05T05:01:07;102376.19;;;-1.62;100.00
67840;BME280;54636;51.684;5.142;2023-04-05T05:03:34;102375.00;;;-1.65;100.00
67840;BME280;54636;51.684;5.142;2023-04-05T05:06:01;102372.72;;;-1.67;100.00
67840;BME280;54636;51.684;5.142;2023-04-05T05:08:27;102360.34;;;-1.78;100.00
67840;BME280;54636;51.684;5.142;2023-04-05T05:10:52;102381.06;;;-1.68;100.00
67840;BME280;54636;51.684;5.142;2023-04-05T05:13:18;102379.94;;;-1.67;100.00
67840;BME280;54636;51.684;5.142;2023-04-05T05:15:43;102379.56;;;-1.66;100.00
67840;BME280;54636;51.684;5.142;2023-04-05T05:18:10;102375.38;;;-1.67;100.00
67840;BME280;54636;51.684;5.142;2023-04-05T05:20:36;102380.75;;;-1.63;100.00
67840;BME280;54636;51.684;5.142;2023-04-05T05:23:02;102384.25;;;-1.59;100.00
67840;BME280;54636;51.684;5.142;2023-04-05T05:25:29;102389.63;;;-1.55;100.00
67840;BME280;54636;51.684;5.142;2023-04-05T05:27:55;102364.81;;;-1.59;100.00
67840;BME280;54636;51.684;5.142;2023-04-05T05:30:20;102387.47;;;-1.46;100.00
67840;BME280;54636;51.684;5.142;2023-04-05T05:32:46;102384.88;;;-1.43;100.00
67840;BME280;54636;51.684;5.142;2023-04-05T05:35:12;102372.66;;;-1.44;100.00
67840;BME280;54636;51.684;5.142;2023-04-05T05:37:39;102377.75;;;-1.35;100.00
67840;BME280;54636;51.684;5.142;2023-04-05T05:40:05;102379.09;;;-1.18;100.00
67840;BME280;54636;51.684;5.142;2023-04-05T05:42:31;102362.81;;;-0.80;100.00
67840;BME280;54636;51.684;5.142;2023-04-05T05:45:01;102390.50;;;-0.21;100.00
67840;BME280;54636;51.684;5.142;2023-04-05T05:47:26;102382.31;;;0.06;100.00
67840;BME280;54636;51.684;5.142;2023-04-05T05:49:52;102374.47;;;0.27;100.00
67840;BME280;54636;51.684;5.142;2023-04-05T05:52:17;102370.00;;;0.45;100.00
67840;BME280;54636;51.684;5.142;2023-04-05T05:54:43;102396.69;;;1.07;100.00
67840;BME280;54636;51.684;5.142;2023-04-05T05:57:08;102392.28;;;1.61;100.00
67840;BME280;54636;51.684;5.142;2023-04-05T05:59:34;102383.88;;;2.09;100.00
67840;BME280;54636;51.684;5.142;2023-04-05T06:01:59;102378.50;;;2.51;100.00
67840;BME280;54636;51.684;5.142;2023-04-05T06:04:25;102388.78;;;2.74;100.00
67840;BME280;54636;51.684;5.142;2023-04-05T06:06:51;102388.38;;;2.83;100.00
67840;BME280;54636;51.684;5.142;2023-04-05T06:09:16;102376.81;;;3.00;99.83
67840;BME280;54636;51.684;5.142;2023-04-05T06:11:42;102396.94;;;3.40;97.88
67840;BME280;54636;51.684;5.142;2023-04-05T06:14:07;102375.00;;;3.52;96.08
67840;BME280;54636;51.684;5.142;2023-04-05T06:16:33;102397.06;;;3.85;95.24
67840;BME280;54636;51.684;5.142;2023-04-05T06:18:59;102403.25;;;4.30;94.92
67840;BME280;54636;51.684;5.142;2023-04-05T06:21:25;102406.56;;;4.82;91.96
67840;BME280;54636;51.684;5.142;2023-04-05T06:23:51;102405.47;;;5.41;90.28
67840;BME280;54636;51.684;5.142;2023-04-05T06:26:22;102390.63;;;5.83;87.05
67840;BME280;54636;51.684;5.142;2023-04-05T06:28:52;102375.69;;;6.25;83.57
67840;BME280;54636;51.684;5.142;2023-04-05T06:31:20;102399.81;;;6.55;81.31
67840;BME280;54636;51.684;5.142;2023-04-05T06:33:45;102392.34;;;6.63;80.17
67840;BME280;54636;51.684;5.142;2023-04-05T06:36:11;102388.13;;;6.82;79.90
67840;BME280;54636;51.684;5.142;2023-04-05T06:38:37;102390.84;;;7.02;79.15
67840;BME280;54636;51.684;5.142;2023-04-05T06:41:02;102385.38;;;7.21;77.29
67840;BME280;54636;51.684;5.142;2023-04-05T06:43:29;102380.75;;;7.22;75.01
67840;BME280;54636;51.684;5.142;2023-04-05T06:45:55;102392.03;;;7.17;74.22
67840;BME280;54636;51.684;5.142;2023-04-05T06:48:21;102376.56;;;6.81;73.85
67840;BME280;54636;51.684;5.142;2023-04-05T06:50:46;102392.69;;;6.65;75.42
67840;BME280;54636;51.684;5.142;2023-04-05T06:53:12;102391.00;;;6.32;75.47
67840;BME280;54636;51.684;5.142;2023-04-05T06:55:47;102379.84;;;6.06;81.60
67840;BME280;54636;51.684;5.142;2023-04-05T06:58:13;102389.75;;;5.62;78.39
67840;BME280;54636;51.684;5.142;2023-04-05T07:00:38;102392.03;;;5.37;77.78
67840;BME280;54636;51.684;5.142;2023-04-05T07:03:03;102378.22;;;5.05;79.34
67840;BME280;54636;51.684;5.142;2023-04-05T07:05:30;102354.47;;;4.62;79.36
67840;BME280;54636;51.684;5.142;2023-04-05T07:07:56;102374.44;;;4.64;83.17
67840;BME280;54636;51.684;5.142;2023-04-05T07:10:21;102373.44;;;4.51;86.34
67840;BME280;54636;51.684;5.142;2023-04-05T07:12:47;102377.31;;;4.50;84.52
67840;BME280;54636;51.684;5.142;2023-04-05T07:15:12;102370.78;;;4.48;87.76
67840;BME280;54636;51.684;5.142;2023-04-05T07:17:37;102375.53;;;4.71;81.09
67840;BME280;54636;51.684;5.142;2023-04-05T07:20:03;102394.34;;;4.74;80.27
67840;BME280;54636;51.684;5.142;2023-04-05T07:22:32;102368.78;;;4.89;78.48
67840;BME280;54636;51.684;5.142;2023-04-05T07:24:57;102394.75;;;5.07;74.39
67840;BME280;54636;51.684;5.142;2023-04-05T07:27:23;102396.22;;;5.11;76.96
67840;BME280;54636;51.684;5.142;2023-04-05T07:29:49;102373.16;;;5.10;75.91
67840;BME280;54636;51.684;5.142;2023-04-05T07:32:14;102367.38;;;5.12;76.35
67840;BME280;54636;51.684;5.142;2023-04-05T07:34:40;102394.09;;;5.26;74.39
67840;BME280;54636;51.684;5.142;2023-04-05T07:37:05;102385.56;;;5.31;74.63
67840;BME280;54636;51.684;5.142;2023-04-05T07:39:32;102357.94;;;5.23;75.28
67840;BME280;54636;51.684;5.142;2023-04-05T07:41:58;102380.34;;;5.47;75.31
67840;BME280;54636;51.684;5.142;2023-04-05T07:44:23;102369.97;;;5.46;76.54
67840;BME280;54636;51.684;5.142;2023-04-05T07:46:49;102383.47;;;5.96;75.29
67840;BME280;54636;51.684;5.142;2023-04-05T07:49:14;102375.88;;;5.87;72.06
67840;BME280;54636;51.684;5.142;2023-04-05T07:51:40;102384.03;;;6.11;71.96
67840;BME280;54636;51.684;5.142;2023-04-05T07:54:07;102374.00;;;6.11;72.95
67840;BME280;54636;51.684;5.142;2023-04-05T07:56:32;102383.78;;;6.25;74.21
67840;BME280;54636;51.684;5.142;2023-04-05T07:58:58;102392.94;;;6.51;68.95
67840;BME280;54636;51.684;5.142;2023-04-05T08:01:23;102388.66;;;6.53;70.40
67840;BME280;54636;51.684;5.142;2023-04-05T08:03:52;102385.84;;;6.60;71.99
67840;BME280;54636;51.684;5.142;2023-04-05T08:06:18;102384.13;;;6.70;73.18
67840;BME280;54636;51.684;5.142;2023-04-05T08:08:45;102383.97;;;6.77;73.68
67840;BME280;54636;51.684;5.142;2023-04-05T08:11:11;102390.56;;;6.96;70.43
67840;BME280;54636;51.684;5.142;2023-04-05T08:13:37;102371.31;;;6.94;70.13
67840;BME280;54636;51.684;5.142;2023-04-05T08:16:08;102378.44;;;7.04;69.28
67840;BME280;54636;51.684;5.142;2023-04-05T08:18:34;102384.19;;;7.06;68.17
67840;BME280;54636;51.684;5.142;2023-04-05T08:21:00;102384.53;;;7.08;66.48
67840;BME280;54636;51.684;5.142;2023-04-05T08:23:25;102389.44;;;7.13;66.29
67840;BME280;54636;51.684;5.142;2023-04-05T08:25:52;102378.22;;;7.15;65.47
67840;BME280;54636;51.684;5.142;2023-04-05T08:28:17;102377.34;;;7.18;64.71
67840;BME280;54636;51.684;5.142;2023-04-05T08:30:43;102376.03;;;7.26;63.43
67840;BME280;54636;51.684;5.142;2023-04-05T08:33:10;102382.38;;;7.36;63.09
67840;BME280;54636;51.684;5.142;2023-04-05T08:35:36;102387.81;;;7.52;62.90
67840;BME280;54636;51.684;5.142;2023-04-05T08:38:02;102376.00;;;7.62;61.82
67840;BME280;54636;51.684;5.142;2023-04-05T08:40:44;102379.81;;;7.81;63.71
67840;BME280;54636;51.684;5.142;2023-04-05T08:43:12;102372.53;;;8.10;60.45
67840;BME280;54636;51.684;5.142;2023-04-05T08:45:46;102378.75;;;8.23;63.28
67840;BME280;54636;51.684;5.142;2023-04-05T08:48:12;102369.56;;;8.50;59.00
67840;BME280;54636;51.684;5.142;2023-04-05T08:50:37;102383.44;;;8.52;58.13
67840;BME280;54636;51.684;5.142;2023-04-05T08:53:03;102369.72;;;8.59;58.54
67840;BME280;54636;51.684;5.142;2023-04-05T08:55:28;102375.63;;;8.70;55.96
67840;BME280;54636;51.684;5.142;2023-04-05T08:57:55;102375.19;;;8.72;55.82
67840;BME280;54636;51.684;5.142;2023-04-05T09:00:24;102350.44;;;8.57;53.08
67840;BME280;54636;51.684;5.142;2023-04-05T09:02:53;102374.78;;;8.86;52.17
67840;BME280;54636;51.684;5.142;2023-04-05T09:05:22;102379.06;;;9.00;51.45
67840;BME280;54636;51.684;5.142;2023-04-05T09:07:49;102378.72;;;9.10;49.99
67840;BME280;54636;51.684;5.142;2023-04-05T09:10:18;102381.00;;;9.12;51.34
67840;BME280;54636;51.684;5.142;2023-04-05T09:12:44;102377.75;;;9.17;49.89
67840;BME280;54636;51.684;5.142;2023-04-05T09:15:10;102376.34;;;9.25;48.84
67840;BME280;54636;51.684;5.142;2023-04-05T09:17:38;102364.00;;;9.37;47.90
67840;BME280;54636;51.684;5.142;2023-04-05T09:20:04;102377.88;;;9.51;46.26
67840;BME280;54636;51.684;5.142;2023-04-05T09:22:29;102374.09;;;9.74;43.88
67840;BME280;54636;51.684;5.142;2023-04-05T09:24:55;102375.13;;;9.77;42.42
67840;BME280;54636;51.684;5.142;2023-04-05T09:27:21;102366.34;;;9.85;46.10
67840;BME280;54636;51.684;5.142;2023-04-05T09:29:47;102356.31;;;9.95;43.94
67840;BME280;54636;51.684;5.142;2023-04-05T09:32:14;102366.16;;;10.14;42.71
67840;BME280;54636;51.684;5.142;2023-04-05T09:34:41;102361.28;;;10.22;42.32
67840;BME280;54636;51.684;5.142;2023-04-05T09:37:15;102363.56;;;10.23;41.38
67840;BME280;54636;51.684;5.142;2023-04-05T09:39:42;102360.53;;;10.21;41.55
67840;BME280;54636;51.684;5.142;2023-04-05T09:42:14;102365.72;;;10.29;40.11
67840;BME280;54636;51.684;5.142;2023-04-05T09:44:58;102366.09;;;10.40;43.05
67840;BME280;54636;51.684;5.142;2023-04-05T09:47:32;102359.19;;;10.26;41.42
67840;BME280;54636;51.684;5.142;2023-04-05T09:50:02;102353.22;;;10.31;42.69
67840;BME280;54636;51.684;5.142;2023-04-05T09:52:31;102354.59;;;10.36;41.53
67840;BME280;54636;51.684;5.142;2023-04-05T09:55:02;102350.22;;;10.60;41.14
67840;BME280;54636;51.684;5.142;2023-04-05T09:57:32;102336.38;;;10.45;42.66
67840;BME280;54636;51.684;5.142;2023-04-05T09:59:58;102351.13;;;10.57;44.09
67840;BME280;54636;51.684;5.142;2023-04-05T10:02:24;102348.66;;;10.50;42.47
67840;BME280;54636;51.684;5.142;2023-04-05T10:04:52;102352.19;;;10.60;42.08
67840;BME280;54636;51.684;5.142;2023-04-05T10:07:18;102336.66;;;10.60;42.67
67840;BME280;54636;51.684;5.142;2023-04-05T10:09:46;102347.19;;;10.80;40.89
67840;BME280;54636;51.684;5.142;2023-04-05T10:12:17;102344.53;;;10.67;41.39
67840;BME280;54636;51.684;5.142;2023-04-05T10:14:46;102329.56;;;10.84;43.51
67840;BME280;54636;51.684;5.142;2023-04-05T10:18:07;102332.13;;;10.88;43.11
67840;BME280;54636;51.684;5.142;2023-04-05T10:20:38;102322.47;;;10.87;41.58
67840;BME280;54636;51.684;5.142;2023-04-05T10:23:16;102330.28;;;11.16;40.86
67840;BME280;54636;51.684;5.142;2023-04-05T10:28:41;102324.97;;;11.12;40.94
67840;BME280;54636;51.684;5.142;2023-04-05T10:34:06;102324.09;;;11.15;40.56
67840;BME280;54636;51.684;5.142;2023-04-05T10:36:44;102326.41;;;11.26;41.24
67840;BME280;54636;51.684;5.142;2023-04-05T10:42:19;102316.94;;;11.49;39.80
67840;BME280;54636;51.684;5.142;2023-04-05T10:44:50;102314.22;;;11.49;40.58
67840;BME280;54636;51.684;5.142;2023-04-05T10:47:18;102308.00;;;11.39;38.21
67840;BME280;54636;51.684;5.142;2023-04-05T10:49:48;102310.84;;;11.27;40.51
67840;BME280;54636;51.684;5.142;2023-04-05T10:52:17;102305.97;;;11.21;40.21
67840;BME280;54636;51.684;5.142;2023-04-05T10:54:44;102279.50;;;11.13;41.66
67840;BME280;54636;51.684;5.142;2023-04-05T10:57:10;102289.44;;;11.47;39.86
67840;BME280;54636;51.684;5.142;2023-04-05T10:59:43;102292.72;;;11.33;41.41
67840;BME280;54636;51.684;5.142;2023-04-05T11:02:09;102301.19;;;11.35;38.83
67840;BME280;54636;51.684;5.142;2023-04-05T11:04:35;102294.22;;;11.34;39.63
67840;BME280;54636;51.684;5.142;2023-04-05T11:07:16;102302.69;;;11.27;39.71
67840;BME280;54636;51.684;5.142;2023-04-05T11:10:02;102292.09;;;11.29;41.40
67840;BME280;54636;51.684;5.142;2023-04-05T11:20:41;102288.25;;;11.75;38.71
67840;BME280;54636;51.684;5.142;2023-04-05T11:23:08;102291.13;;;11.63;37.83
67840;BME280;54636;51.684;5.142;2023-04-05T11:25:37;102288.41;;;11.63;38.61
67840;BME280;54636;51.684;5.142;2023-04-05T11:28:06;102294.31;;;11.61;37.73
67840;BME280;54636;51.684;5.142;2023-04-05T11:30:47;102282.50;;;11.55;39.59
67840;BME280;54636;51.684;5.142;2023-04-05T11:33:35;102279.78;;;11.64;40.22
67840;BME280;54636;51.684;5.142;2023-04-05T11:36:01;102271.31;;;11.62;39.32
67840;BME280;54636;51.684;5.142;2023-04-05T11:38:27;102284.22;;;11.89;39.30
67840;BME280;54636;51.684;5.142;2023-04-05T11:41:04;102281.44;;;11.71;38.75
67840;BME280;54636;51.684;5.142;2023-04-05T11:43:30;102274.34;;;11.73;38.17
67840;BME280;54636;51.684;5.142;2023-04-05T11:45:55;102267.38;;;11.72;37.66
67840;BME280;54636;51.684;5.142;2023-04-05T11:48:21;102247.91;;;11.65;39.46
67840;BME280;54636;51.684;5.142;2023-04-05T11:50:46;102260.16;;;11.78;36.83
67840;BME280;54636;51.684;5.142;2023-04-05T11:53:16;102246.69;;;11.66;36.94
67840;BME280;54636;51.684;5.142;2023-04-05T11:55:47;102248.34;;;11.63;38.65
67840;BME280;54636;51.684;5.142;2023-04-05T11:58:25;102247.44;;;11.84;38.75
67840;BME280;54636;51.684;5.142;2023-04-05T12:01:10;102238.53;;;12.02;38.03
67840;BME280;54636;51.684;5.142;2023-04-05T12:03:36;102219.63;;;11.90;36.97
67840;BME280;54636;51.684;5.142;2023-04-05T12:06:03;102232.47;;;11.98;36.73
67840;BME280;54636;51.684;5.142;2023-04-05T12:08:45;102229.44;;;11.87;37.32
67840;BME280;54636;51.684;5.142;2023-04-05T12:11:15;102218.41;;;11.91;36.25
67840;BME280;54636;51.684;5.142;2023-04-05T12:13:41;102231.72;;;11.88;37.00
67840;BME280;54636;51.684;5.142;2023-04-05T12:16:07;102232.31;;;11.93;36.84
67840;BME280;54636;51.684;5.142;2023-04-05T12:18:37;102235.66;;;11.97;36.28
67840;BME280;54636;51.684;5.142;2023-04-05T12:21:04;102217.16;;;11.73;37.18
67840;BME280;54636;51.684;5.142;2023-04-05T12:23:30;102223.69;;;11.76;36.09
67840;BME280;54636;51.684;5.142;2023-04-05T12:25:56;102223.25;;;11.68;37.18
67840;BME280;54636;51.684;5.142;2023-04-05T12:28:22;102220.94;;;11.76;37.08
67840;BME280;54636;51.684;5.142;2023-04-05T12:30:55;102212.47;;;11.74;37.99
67840;BME280;54636;51.684;5.142;2023-04-05T12:35:56;102215.38;;;11.79;37.66
67840;BME280;54636;51.684;5.142;2023-04-05T12:38:25;102201.94;;;11.67;37.00
67840;BME280;54636;51.684;5.142;2023-04-05T12:40:52;102210.06;;;11.76;37.54
67840;BME280;54636;51.684;5.142;2023-04-05T12:43:18;102204.81;;;11.81;38.20
67840;BME280;54636;51.684;5.142;2023-04-05T12:45:46;102197.09;;;11.80;37.28
67840;BME280;54636;51.684;5.142;2023-04-05T12:48:19;102201.31;;;11.81;37.81
67840;BME280;54636;51.684;5.142;2023-04-05T12:50:47;102198.59;;;11.81;38.71
67840;BME280;54636;51.684;5.142;2023-04-05T12:53:21;102195.41;;;11.92;38.87
67840;BME280;54636;51.684;5.142;2023-04-05T12:55:53;102193.13;;;11.99;37.46
67840;BME280;54636;51.684;5.142;2023-04-05T12:58:20;102190.72;;;11.92;36.92
67840;BME280;54636;51.684;5.142;2023-04-05T13:00:46;102189.06;;;11.85;36.92
67840;BME280;54636;51.684;5.142;2023-04-05T13:03:17;102179.06;;;11.92;36.54
67840;BME280;54636;51.684;5.142;2023-04-05T13:05:45;102184.22;;;11.80;36.27
67840;BME280;54636;51.684;5.142;2023-04-05T13:08:11;102183.00;;;11.91;36.40
67840;BME280;54636;51.684;5.142;2023-04-05T13:10:37;102173.19;;;11.66;36.58
67840;BME280;54636;51.684;5.142;2023-04-05T13:13:02;102171.53;;;11.59;38.07
67840;BME280;54636;51.684;5.142;2023-04-05T13:15:27;102178.75;;;11.71;38.68
67840;BME280;54636;51.684;5.142;2023-04-05T13:17:53;102164.53;;;11.76;37.39
67840;BME280;54636;51.684;5.142;2023-04-05T13:20:21;102162.00;;;11.82;37.48
67840;BME280;54636;51.684;5.142;2023-04-05T13:22:46;102164.41;;;11.89;37.91